CSCL Dalian — VRBH4 — position and weather

sailwx.info

Track history (hours):
 
Tides and Currents Weather Stations Pressure Air Temp Water Temp Dewpoint Dewpoint Depression Visibility Wind Speed Wind Dir Waves Ship Positions

CSCL Dalian

Last reported at 2014-Oct-01 00:00 UTC. Time now 2014-Oct-01 04:13 UTC.
Position N 42°00' W 125°12'.

Length 259.8 m; ; draft 11 m.

Type: Cargo ship. MMSI: 477014600.

Wind from 340 at 16 knots

Waves 2.0 meters (7 feet), 99 second period

Barometer 1022.1 mb
Air temperature 16.0 ° C
Visibility: greater than 10.8 NM
Dewpoint 12.4 ° C
Water temperature 14.0 ° C

Date/timePositionNaut miles runAvg speedWind from/ knotsBaromVisibWave heightAir tempDewpointWater temp
2014-Oct-01 00:00N 42°00' W 125°12'16313.6 340 / 161022.110.8 2.016.012.414.0
2014-Sep-30 12:00N 39°18' W 124°48'5512.3 350 / 201018.110.8 2.016.012.414.0
2014-Sep-30 07:32N 38°31' W 124°13'1313.6
2014-Sep-30 06:33N 38°19' W 124°04'814.5
2014-Sep-30 06:00N 38°18' W 123°54'512.1 340 / 151018.8 1.1 1.017.015.318.0
2014-Sep-30 05:33N 38°14' W 123°49'1313.1
2014-Sep-30 04:33N 38°12' W 123°33'1212.2
2014-Sep-30 03:33N 38°07' W 123°18'1212.1
2014-Sep-30 02:33N 37°58' W 123°08'1313.2
2014-Sep-30 01:33N 37°52' W 122°53'1212.3
2014-Sep-30 00:33N 37°46' W 122°40'1413.6
2014-Sep-29 23:34N 37°49' W 122°23'3 2.9
2014-Sep-29 22:33N 37°49' W 122°19'0 0.0
2014-Sep-29 21:33N 37°49' W 122°19'0 0.0
2014-Sep-29 20:33N 37°49' W 122°19'0 0.0
2014-Sep-29 19:33N 37°49' W 122°19'0 0.0
2014-Sep-29 18:33N 37°49' W 122°19'0 0.0
2014-Sep-29 17:33N 37°49' W 122°19'0 0.0
2014-Sep-29 16:33N 37°49' W 122°19'0 0.0
2014-Sep-29 15:33N 37°49' W 122°19'0 0.0
2014-Sep-29 14:33N 37°49' W 122°19'0 0.3
2014-Sep-29 13:33N 37°49' W 122°20'9 8.7
2014-Sep-29 12:33N 37°48' W 122°31'1212.0
2014-Sep-29 11:33N 37°42' W 122°44'9 9.2
2014-Sep-29 10:33N 37°37' W 122°53'1313.4
2014-Sep-29 09:33N 37°27' W 123°05'1716.7
2014-Sep-29 08:33N 37°11' W 123°02'1717.1
2014-Sep-29 07:33N 36°55' W 122°53'1717.0
2014-Sep-29 06:34N 36°40' W 122°44'1018.1
2014-Sep-29 06:00N 36°30' W 122°42'818.9 340 / 31015.110.8 18.014.619.0
2014-Sep-29 05:34N 36°24' W 122°35'1716.7
2014-Sep-29 04:33N 36°09' W 122°25'1716.9
2014-Sep-29 03:34N 35°55' W 122°15'1717.0
2014-Sep-29 02:33N 35°41' W 122°03'1716.7
2014-Sep-29 01:33N 35°27' W 121°51'1716.5
2014-Sep-29 00:33N 35°14' W 121°39'1716.8
2014-Sep-28 23:33N 34°60' W 121°27'6315.7
2014-Sep-28 19:33N 34°21' W 120°28'1615.8
2014-Sep-28 18:33N 34°17' W 120°09'915.9
2014-Sep-28 18:00N 34°12' W 120°00'817.7 110 / 71015.110.8 0.519.514.419.0
2014-Sep-28 17:31N 34°12' W 119°50'1515.9
2014-Sep-28 16:33N 34°08' W 119°32'1615.9
2014-Sep-28 15:33N 34°04' W 119°14'5412.1
2014-Sep-28 11:05N 33°39' W 118°16'4 7.7
2014-Sep-28 10:34N 33°43' W 118°15'1 1.2
2014-Sep-28 09:32N 33°44' W 118°15'0 0.0
2014-Sep-28 08:33N 33°44' W 118°15'0 0.0
2014-Sep-28 07:30N 33°44' W 118°15'0 0.0
2014-Sep-28 06:21N 33°44' W 118°15'0 0.0
2014-Sep-28 05:33N 33°44' W 118°15'0 0.0
2014-Sep-28 04:24N 33°44' W 118°15'0 0.0
2014-Sep-28 03:33N 33°44' W 118°15'0 0.0
2014-Sep-28 02:33N 33°44' W 118°15'0 0.0
2014-Sep-28 01:33N 33°44' W 118°15'0 0.0
2014-Sep-28 00:33N 33°44' W 118°15'0 0.0
2014-Sep-27 23:33N 33°44' W 118°15'0 0.0
2014-Sep-27 22:33N 33°44' W 118°15'0 0.0
2014-Sep-27 21:33N 33°44' W 118°15'0 0.0
2014-Sep-27 20:33N 33°44' W 118°15'0 0.0
2014-Sep-27 19:33N 33°44' W 118°15'0 0.0
2014-Sep-27 18:33N 33°44' W 118°15'0 0.0
2014-Sep-27 17:33N 33°44' W 118°15'0 0.0
2014-Sep-27 16:33N 33°44' W 118°15'0 0.0
2014-Sep-27 15:33N 33°44' W 118°15'0 0.0
2014-Sep-27 14:27N 33°44' W 118°15'0 0.0
2014-Sep-27 13:33N 33°44' W 118°15'0 0.0
2014-Sep-27 12:27N 33°44' W 118°15'0 0.0
2014-Sep-27 11:33N 33°44' W 118°15'0 0.0
2014-Sep-27 10:33N 33°44' W 118°15'0 0.0
2014-Sep-27 09:33N 33°44' W 118°15'0 0.0
2014-Sep-27 08:33N 33°44' W 118°15'0 0.0
2014-Sep-27 07:33N 33°44' W 118°15'0 0.0
2014-Sep-27 06:33N 33°44' W 118°15'0 0.0
2014-Sep-27 05:33N 33°44' W 118°15'0 0.0
2014-Sep-27 04:33N 33°44' W 118°15'0 0.0
2014-Sep-27 03:33N 33°44' W 118°15'0 0.0
2014-Sep-27 02:33N 33°44' W 118°15'0 0.0
2014-Sep-27 01:33N 33°44' W 118°15'0 0.0
2014-Sep-27 00:33N 33°44' W 118°15'0 0.0
2014-Sep-26 23:27N 33°44' W 118°15'0 0.0
2014-Sep-26 22:33N 33°44' W 118°15'0 0.0
2014-Sep-26 21:33N 33°44' W 118°15'0 0.0
2014-Sep-26 20:33N 33°44' W 118°15'0 0.0
2014-Sep-26 19:33N 33°44' W 118°15'0 0.0
2014-Sep-26 18:33N 33°44' W 118°15'0 0.0
2014-Sep-26 17:33N 33°44' W 118°15'0 0.0
2014-Sep-26 16:33N 33°44' W 118°15'4 4.4
2014-Sep-26 15:33N 33°40' W 118°13'7 7.1
2014-Sep-26 14:34N 33°34' W 118°09'7 7.3
2014-Sep-26 13:34N 33°27' W 118°06'8 8.3
2014-Sep-26 12:33N 33°19' W 118°03'9 9.4
2014-Sep-26 11:33N 33°10' W 118°00'1110.6
2014-Sep-26 10:34N 32°59' W 117°60'1110.9
2014-Sep-26 09:33N 32°48' W 117°59'1110.8
2014-Sep-26 08:33N 32°38' W 117°59'1110.6
2014-Sep-26 07:33N 32°27' W 117°54'1010.1
2014-Sep-26 06:34N 32°18' W 117°51'611.1
2014-Sep-26 06:00N 32°12' W 117°48'4 8.7 310 / 61014.110.8 22.020.525.0
2014-Sep-26 05:34N 32°08' W 117°47'10 9.9
2014-Sep-26 04:33N 31°59' W 117°43'10 9.8
2014-Sep-26 03:33N 31°50' W 117°39'1110.5
2014-Sep-26 02:32N 31°40' W 117°34'1010.6
2014-Sep-26 01:33N 31°30' W 117°30'1010.2
2014-Sep-26 00:33N 31°21' W 117°26'8 8.0
2014-Sep-25 23:33N 31°13' W 117°23'0 0.4
2014-Sep-25 22:33N 31°13' W 117°23'1312.8
2014-Sep-25 21:32N 31°01' W 117°18'1414.7
2014-Sep-25 20:33N 30°47' W 117°12'1515.2
2014-Sep-25 19:33N 30°33' W 117°06'1211.9
2014-Sep-25 18:33N 30°22' W 117°01'1017.8
2014-Sep-25 18:00N 30°12' W 117°00'715.3 330 / 81015.610.8 0.524.019.425.0
2014-Sep-25 17:32N 30°07' W 116°55'1616.3
2014-Sep-25 16:33N 29°52' W 116°49'1716.9
2014-Sep-25 15:34N 29°36' W 116°42'1716.6
2014-Sep-25 14:33N 29°20' W 116°36'1716.1
2014-Sep-25 13:32N 29°05' W 116°29'1716.5
2014-Sep-25 12:30N 28°49' W 116°23'1326.1
2014-Sep-25 12:00N 28°36' W 116°18'2 5.3 220 / 41015.110.8 0.523.019.921.0
2014-Sep-25 11:34N 28°34' W 116°17'2016.2
2014-Sep-25 10:20N 28°16' W 116°08'1316.6
2014-Sep-25 09:34N 28°05' W 115°59'1716.7
2014-Sep-25 08:34N 27°51' W 115°49'1916.3
2014-Sep-25 07:25N 27°37' W 115°36'1416.5
2014-Sep-25 06:34N 27°25' W 115°26'1616.4
2014-Sep-25 05:34N 27°12' W 115°16'1816.4
2014-Sep-25 04:29N 26°58' W 115°04'50317.7
2014-Sep-24 00:00N 21°06' W 108°30'12120.1 010 / 21012.110.8 32.025.026.0
2014-Sep-23 18:00N 20°00' W 106°42'10116.8 130 / 81014.110.8 0.530.024.331.0
2014-Sep-23 12:00N 19°06' W 105°12'235 5.6 170 / 51012.110.8 0.527.024.125.0
2014-Sep-21 18:00N 17°12' W 101°36'7312.1 070 / 61014.110.8 0.529.024.831.0
2014-Sep-21 12:00N 16°36' W 100°30'57 9.5 020 / 41014.1 5.4 0.527.022.624.0
2014-Sep-21 06:00N 16°12' W 099°36'   120 / 21015.110.8 29.023.230.0
Track history (hours):
 
Tides and Currents Weather Stations Pressure Air Temp Water Temp Dewpoint Dewpoint Depression Visibility Wind Speed Wind Dir Waves Ship Positions

CSCL Dalian

Last reported at 2014-Oct-01 00:00 UTC. Time now 2014-Oct-01 04:13 UTC.
Position N 42°00' W 125°12'.

Length 259.8 m; ; draft 11 m.

Type: Cargo ship. MMSI: 477014600.

Wind from 340 at 16 knots

Waves 2.0 meters (7 feet), 99 second period

Barometer 1022.1 mb
Air temperature 16.0 ° C
Visibility: greater than 10.8 NM
Dewpoint 12.4 ° C
Water temperature 14.0 ° C

Date/timePositionNaut miles runAvg speedWind from/ knotsBaromVisibWave heightAir tempDewpointWater temp
2014-Oct-01 00:00N 42°00' W 125°12'16313.6 340 / 161022.110.8 2.016.012.414.0
2014-Sep-30 12:00N 39°18' W 124°48'5512.3 350 / 201018.110.8 2.016.012.414.0
2014-Sep-30 07:32N 38°31' W 124°13'1313.6
2014-Sep-30 06:33N 38°19' W 124°04'814.5
2014-Sep-30 06:00N 38°18' W 123°54'512.1 340 / 151018.8 1.1 1.017.015.318.0
2014-Sep-30 05:33N 38°14' W 123°49'1313.1
2014-Sep-30 04:33N 38°12' W 123°33'1212.2
2014-Sep-30 03:33N 38°07' W 123°18'1212.1
2014-Sep-30 02:33N 37°58' W 123°08'1313.2
2014-Sep-30 01:33N 37°52' W 122°53'1212.3
2014-Sep-30 00:33N 37°46' W 122°40'1413.6
2014-Sep-29 23:34N 37°49' W 122°23'3 2.9
2014-Sep-29 22:33N 37°49' W 122°19'0 0.0
2014-Sep-29 21:33N 37°49' W 122°19'0 0.0
2014-Sep-29 20:33N 37°49' W 122°19'0 0.0
2014-Sep-29 19:33N 37°49' W 122°19'0 0.0
2014-Sep-29 18:33N 37°49' W 122°19'0 0.0
2014-Sep-29 17:33N 37°49' W 122°19'0 0.0
2014-Sep-29 16:33N 37°49' W 122°19'0 0.0
2014-Sep-29 15:33N 37°49' W 122°19'0 0.0
2014-Sep-29 14:33N 37°49' W 122°19'0 0.3
2014-Sep-29 13:33N 37°49' W 122°20'9 8.7
2014-Sep-29 12:33N 37°48' W 122°31'1212.0
2014-Sep-29 11:33N 37°42' W 122°44'9 9.2
2014-Sep-29 10:33N 37°37' W 122°53'1313.4
2014-Sep-29 09:33N 37°27' W 123°05'1716.7
2014-Sep-29 08:33N 37°11' W 123°02'1717.1
2014-Sep-29 07:33N 36°55' W 122°53'1717.0
2014-Sep-29 06:34N 36°40' W 122°44'1018.1
2014-Sep-29 06:00N 36°30' W 122°42'818.9 340 / 31015.110.8 18.014.619.0
2014-Sep-29 05:34N 36°24' W 122°35'1716.7
2014-Sep-29 04:33N 36°09' W 122°25'1716.9
2014-Sep-29 03:34N 35°55' W 122°15'1717.0
2014-Sep-29 02:33N 35°41' W 122°03'1716.7
2014-Sep-29 01:33N 35°27' W 121°51'1716.5
2014-Sep-29 00:33N 35°14' W 121°39'1716.8
2014-Sep-28 23:33N 34°60' W 121°27'6315.7
2014-Sep-28 19:33N 34°21' W 120°28'1615.8
2014-Sep-28 18:33N 34°17' W 120°09'915.9
2014-Sep-28 18:00N 34°12' W 120°00'817.7 110 / 71015.110.8 0.519.514.419.0
2014-Sep-28 17:31N 34°12' W 119°50'1515.9
2014-Sep-28 16:33N 34°08' W 119°32'1615.9
2014-Sep-28 15:33N 34°04' W 119°14'5412.1
2014-Sep-28 11:05N 33°39' W 118°16'4 7.7
2014-Sep-28 10:34N 33°43' W 118°15'1 1.2
2014-Sep-28 09:32N 33°44' W 118°15'0 0.0
2014-Sep-28 08:33N 33°44' W 118°15'0 0.0
2014-Sep-28 07:30N 33°44' W 118°15'0 0.0
2014-Sep-28 06:21N 33°44' W 118°15'0 0.0
2014-Sep-28 05:33N 33°44' W 118°15'0 0.0
2014-Sep-28 04:24N 33°44' W 118°15'0 0.0
2014-Sep-28 03:33N 33°44' W 118°15'0 0.0
2014-Sep-28 02:33N 33°44' W 118°15'0 0.0
2014-Sep-28 01:33N 33°44' W 118°15'0 0.0
2014-Sep-28 00:33N 33°44' W 118°15'0 0.0
2014-Sep-27 23:33N 33°44' W 118°15'0 0.0
2014-Sep-27 22:33N 33°44' W 118°15'0 0.0
2014-Sep-27 21:33N 33°44' W 118°15'0 0.0
2014-Sep-27 20:33N 33°44' W 118°15'0 0.0
2014-Sep-27 19:33N 33°44' W 118°15'0 0.0
2014-Sep-27 18:33N 33°44' W 118°15'0 0.0
2014-Sep-27 17:33N 33°44' W 118°15'0 0.0
2014-Sep-27 16:33N 33°44' W 118°15'0 0.0
2014-Sep-27 15:33N 33°44' W 118°15'0 0.0
2014-Sep-27 14:27N 33°44' W 118°15'0 0.0
2014-Sep-27 13:33N 33°44' W 118°15'0 0.0
2014-Sep-27 12:27N 33°44' W 118°15'0 0.0
2014-Sep-27 11:33N 33°44' W 118°15'0 0.0
2014-Sep-27 10:33N 33°44' W 118°15'0 0.0
2014-Sep-27 09:33N 33°44' W 118°15'0 0.0
2014-Sep-27 08:33N 33°44' W 118°15'0 0.0
2014-Sep-27 07:33N 33°44' W 118°15'0 0.0
2014-Sep-27 06:33N 33°44' W 118°15'0 0.0
2014-Sep-27 05:33N 33°44' W 118°15'0 0.0
2014-Sep-27 04:33N 33°44' W 118°15'0 0.0
2014-Sep-27 03:33N 33°44' W 118°15'0 0.0
2014-Sep-27 02:33N 33°44' W 118°15'0 0.0
2014-Sep-27 01:33N 33°44' W 118°15'0 0.0
2014-Sep-27 00:33N 33°44' W 118°15'0 0.0
2014-Sep-26 23:27N 33°44' W 118°15'0 0.0
2014-Sep-26 22:33N 33°44' W 118°15'0 0.0
2014-Sep-26 21:33N 33°44' W 118°15'0 0.0
2014-Sep-26 20:33N 33°44' W 118°15'0 0.0
2014-Sep-26 19:33N 33°44' W 118°15'0 0.0
2014-Sep-26 18:33N 33°44' W 118°15'0 0.0
2014-Sep-26 17:33N 33°44' W 118°15'0 0.0
2014-Sep-26 16:33N 33°44' W 118°15'4 4.4
2014-Sep-26 15:33N 33°40' W 118°13'7 7.1
2014-Sep-26 14:34N 33°34' W 118°09'7 7.3
2014-Sep-26 13:34N 33°27' W 118°06'8 8.3
2014-Sep-26 12:33N 33°19' W 118°03'9 9.4
2014-Sep-26 11:33N 33°10' W 118°00'1110.6
2014-Sep-26 10:34N 32°59' W 117°60'1110.9
2014-Sep-26 09:33N 32°48' W 117°59'1110.8
2014-Sep-26 08:33N 32°38' W 117°59'1110.6
2014-Sep-26 07:33N 32°27' W 117°54'1010.1
2014-Sep-26 06:34N 32°18' W 117°51'611.1
2014-Sep-26 06:00N 32°12' W 117°48'4 8.7 310 / 61014.110.8 22.020.525.0
2014-Sep-26 05:34N 32°08' W 117°47'10 9.9
2014-Sep-26 04:33N 31°59' W 117°43'10 9.8
2014-Sep-26 03:33N 31°50' W 117°39'1110.5
2014-Sep-26 02:32N 31°40' W 117°34'1010.6
2014-Sep-26 01:33N 31°30' W 117°30'1010.2
2014-Sep-26 00:33N 31°21' W 117°26'8 8.0
2014-Sep-25 23:33N 31°13' W 117°23'0 0.4
2014-Sep-25 22:33N 31°13' W 117°23'1312.8
2014-Sep-25 21:32N 31°01' W 117°18'1414.7
2014-Sep-25 20:33N 30°47' W 117°12'1515.2
2014-Sep-25 19:33N 30°33' W 117°06'1211.9
2014-Sep-25 18:33N 30°22' W 117°01'1017.8
2014-Sep-25 18:00N 30°12' W 117°00'715.3 330 / 81015.610.8 0.524.019.425.0
2014-Sep-25 17:32N 30°07' W 116°55'1616.3
2014-Sep-25 16:33N 29°52' W 116°49'1716.9
2014-Sep-25 15:34N 29°36' W 116°42'1716.6
2014-Sep-25 14:33N 29°20' W 116°36'1716.1
2014-Sep-25 13:32N 29°05' W 116°29'1716.5
2014-Sep-25 12:30N 28°49' W 116°23'1326.1
2014-Sep-25 12:00N 28°36' W 116°18'2 5.3 220 / 41015.110.8 0.523.019.921.0
2014-Sep-25 11:34N 28°34' W 116°17'2016.2
2014-Sep-25 10:20N 28°16' W 116°08'1316.6
2014-Sep-25 09:34N 28°05' W 115°59'1716.7
2014-Sep-25 08:34N 27°51' W 115°49'1916.3
2014-Sep-25 07:25N 27°37' W 115°36'1416.5
2014-Sep-25 06:34N 27°25' W 115°26'1616.4
2014-Sep-25 05:34N 27°12' W 115°16'1816.4
2014-Sep-25 04:29N 26°58' W 115°04'50317.7
2014-Sep-24 00:00N 21°06' W 108°30'12120.1 010 / 21012.110.8 32.025.026.0
2014-Sep-23 18:00N 20°00' W 106°42'10116.8 130 / 81014.110.8 0.530.024.331.0
2014-Sep-23 12:00N 19°06' W 105°12'235 5.6 170 / 51012.110.8 0.527.024.125.0
2014-Sep-21 18:00N 17°12' W 101°36'7312.1 070 / 61014.110.8 0.529.024.831.0
2014-Sep-21 12:00N 16°36' W 100°30'57 9.5 020 / 41014.1 5.4 0.527.022.624.0
2014-Sep-21 06:00N 16°12' W 099°36'   120 / 21015.110.8 29.023.230.0

Dump ship's entire track history